Time;durP1;ratioP1;P1;durP2;ratioP2;P2;SDS_P1;SDS_P2;PMS_P1;PMS_P2;Temp;Humidity;BMP_temperature;BMP_pressure;BME280_temperature;BME280_humidity;BME280_pressure;Samples;Min_cycle;Max_cycle;Signal;HPM_P1;HPM_P2
2022/10/09 00:01:03;;;;;;;;;9.75;8.00;;;;;;;;5025327;28;61787;-76
2022/10/09 00:03:29;;;;;;;;;13.50;8.00;;;;;;;;5025401;28;62159;-76
2022/10/09 00:05:54;;;;;;;;;14.75;9.50;;;;;;;;5024428;28;61820;-76
2022/10/09 00:08:19;;;;;;;;;6.25;5.75;;;;;;;;5023434;28;62264;-76
2022/10/09 00:10:45;;;;;;;;;11.00;7.75;;;;;;;;5023548;28;61847;-76
2022/10/09 00:13:10;;;;;;;;;9.50;5.75;;;;;;;;5025116;28;62150;-76
2022/10/09 00:15:37;;;;;;;;;11.00;8.75;;;;;;;;5023108;28;64722;-76
2022/10/09 00:18:02;;;;;;;;;9.25;8.50;;;;;;;;5023700;28;61887;-76
2022/10/09 00:20:27;;;;;;;;;9.25;8.75;;;;;;;;5024225;28;62487;-76
2022/10/09 00:22:53;;;;;;;;;8.50;8.00;;;;;;;;5023724;28;61839;-76
2022/10/09 00:25:18;;;;;;;;;11.00;6.50;;;;;;;;5024014;28;62182;-76
2022/10/09 00:27:43;;;;;;;;;12.00;8.00;;;;;;;;5025064;28;61827;-76
2022/10/09 00:30:09;;;;;;;;;10.00;8.00;;;;;;;;5024827;28;61990;-76
2022/10/09 00:32:34;;;;;;;;;10.00;7.75;;;;;;;;5025114;28;61877;-77
2022/10/09 00:34:59;;;;;;;;;8.50;5.00;;;;;;;;5023512;28;62251;-76
2022/10/09 00:37:24;;;;;;;;;7.50;6.75;;;;;;;;5038184;28;61928;-76
2022/10/09 00:39:50;;;;;;;;;10.25;7.50;;;;;;;;5026580;28;61937;-76
2022/10/09 00:42:15;;;;;;;;;10.25;7.50;;;;;;;;5044766;28;62010;-76
2022/10/09 00:44:56;;;;;;;;;8.00;6.25;;;;;;;;5043881;28;62656;-76
2022/10/09 00:47:28;;;;;;;;;10.50;8.00;;;;;;;;5044517;28;62223;-76
2022/10/09 00:49:55;;;;;;;;;7.00;7.00;;;;;;;;5043815;28;61844;-76
2022/10/09 00:52:23;;;;;;;;;10.00;7.25;;;;;;;;5026535;28;61732;-77
2022/10/09 00:54:48;;;;;;;;;8.25;5.00;;;;;;;;5043509;28;61956;-76
2022/10/09 00:57:13;;;;;;;;;5.50;5.50;;;;;;;;5025906;28;62084;-76
2022/10/09 00:59:39;;;;;;;;;8.25;4.00;;;;;;;;5044272;28;61861;-76
2022/10/09 01:02:04;;;;;;;;;12.25;6.50;;;;;;;;5044324;28;62182;-77
2022/10/09 01:04:30;;;;;;;;;8.75;7.00;;;;;;;;5042896;28;62076;-76
2022/10/09 01:07:01;;;;;;;;;6.50;6.00;;;;;;;;5044338;28;62244;-76
2022/10/09 01:09:32;;;;;;;;;7.25;6.00;;;;;;;;5043846;28;62126;-76
2022/10/09 01:11:59;;;;;;;;;7.25;6.00;;;;;;;;5026387;28;61798;-76
2022/10/09 01:14:30;;;;;;;;;7.50;6.25;;;;;;;;5043211;28;61727;-76
2022/10/09 01:16:58;;;;;;;;;8.25;6.50;;;;;;;;5044136;28;61949;-76
2022/10/09 01:19:41;;;;;;;;;7.25;7.00;;;;;;;;5043720;28;61855;-77
2022/10/09 01:22:39;;;;;;;;;12.25;7.25;;;;;;;;5025824;28;62303;-76
2022/10/09 01:25:18;;;;;;;;;6.50;6.00;;;;;;;;4978754;28;61954;-76
2022/10/09 01:27:43;;;;;;;;;8.00;5.00;;;;;;;;5006183;28;61778;-76
2022/10/09 01:30:11;;;;;;;;;6.50;5.00;;;;;;;;5024059;28;61899;-76
2022/10/09 01:32:38;;;;;;;;;7.00;5.50;;;;;;;;5022630;28;61835;-76
2022/10/09 01:35:05;;;;;;;;;6.00;6.00;;;;;;;;5022805;28;61790;-77
2022/10/09 01:37:31;;;;;;;;;5.75;5.75;;;;;;;;5052182;28;62086;-76
2022/10/09 01:39:57;;;;;;;;;6.75;4.00;;;;;;;;5064090;28;61882;-77
2022/10/09 01:42:23;;;;;;;;;9.25;7.00;;;;;;;;5064166;28;61719;-76
2022/10/09 01:44:49;;;;;;;;;7.75;6.25;;;;;;;;5045031;28;64805;-76
2022/10/09 01:47:15;;;;;;;;;6.00;6.00;;;;;;;;5064053;28;61648;-77
2022/10/09 01:49:59;;;;;;;;;8.25;7.00;;;;;;;;5044769;28;61995;-76
2022/10/09 01:52:27;;;;;;;;;7.00;5.50;;;;;;;;5063715;28;62094;-77
2022/10/09 01:54:52;;;;;;;;;5.50;5.50;;;;;;;;5062801;28;62189;-76
2022/10/09 01:57:21;;;;;;;;;9.25;6.50;;;;;;;;5045776;28;61900;-76
2022/10/09 01:59:47;;;;;;;;;5.75;5.00;;;;;;;;5063437;28;61882;-76
2022/10/09 02:02:13;;;;;;;;;7.00;3.50;;;;;;;;5063703;28;61673;-76
2022/10/09 02:04:41;;;;;;;;;7.00;5.00;;;;;;;;5062506;28;61910;-76
2022/10/09 02:07:06;;;;;;;;;4.50;4.50;;;;;;;;5063337;28;62013;-76
2022/10/09 02:09:32;;;;;;;;;5.50;3.50;;;;;;;;5063417;28;61816;-76
2022/10/09 02:12:00;;;;;;;;;4.00;4.00;;;;;;;;5063248;28;61789;-76
2022/10/09 02:14:25;;;;;;;;;5.00;5.00;;;;;;;;5062635;28;61789;-76
2022/10/09 02:16:55;;;;;;;;;6.50;5.00;;;;;;;;5063428;28;62083;-76
2022/10/09 02:19:20;;;;;;;;;4.25;4.25;;;;;;;;5044885;28;61913;-76
2022/10/09 02:21:48;;;;;;;;;5.50;4.50;;;;;;;;5062936;28;61849;-76
2022/10/09 02:24:16;;;;;;;;;6.50;6.25;;;;;;;;5046646;28;62879;-76
2022/10/09 02:26:41;;;;;;;;;6.50;2.00;;;;;;;;5042984;28;61784;-76
2022/10/09 02:29:07;;;;;;;;;4.75;3.50;;;;;;;;5024818;28;62048;-76
2022/10/09 02:31:34;;;;;;;;;10.00;4.75;;;;;;;;5025348;28;61969;-76
2022/10/09 02:34:19;;;;;;;;;8.00;5.25;;;;;;;;5042068;28;62060;-76
2022/10/09 02:36:45;;;;;;;;;8.00;3.25;;;;;;;;5050104;28;61698;-77
2022/10/09 02:39:10;;;;;;;;;7.00;5.75;;;;;;;;5063196;28;61966;-76
2022/10/09 02:41:35;;;;;;;;;3.50;3.50;;;;;;;;5063048;28;62022;-76
2022/10/09 02:44:01;;;;;;;;;3.50;2.25;;;;;;;;5062371;28;62014;-76
2022/10/09 02:46:27;;;;;;;;;6.00;3.75;;;;;;;;5044932;28;61926;-76
2022/10/09 02:48:52;;;;;;;;;5.75;4.00;;;;;;;;5061682;28;62223;-76
2022/10/09 02:51:18;;;;;;;;;3.00;3.00;;;;;;;;5063116;28;61761;-76
2022/10/09 02:53:43;;;;;;;;;2.00;2.00;;;;;;;;5061990;28;61901;-76
2022/10/09 02:56:09;;;;;;;;;6.25;5.00;;;;;;;;5062901;28;61767;-76
2022/10/09 02:58:34;;;;;;;;;4.00;4.00;;;;;;;;5044572;28;62024;-76
2022/10/09 03:01:00;;;;;;;;;7.25;3.00;;;;;;;;5062539;28;62129;-76
2022/10/09 03:03:25;;;;;;;;;3.00;3.00;;;;;;;;5043553;28;63745;-76
2022/10/09 03:06:10;;;;;;;;;7.00;4.50;;;;;;;;5062204;28;61826;-76
2022/10/09 03:08:36;;;;;;;;;6.75;6.75;;;;;;;;5062604;28;61705;-76
2022/10/09 03:11:01;;;;;;;;;3.00;3.00;;;;;;;;5062561;28;61961;-76
2022/10/09 03:13:27;;;;;;;;;2.25;2.25;;;;;;;;5061846;28;62022;-76
2022/10/09 03:15:52;;;;;;;;;4.25;4.25;;;;;;;;5062376;28;61683;-76
2022/10/09 03:18:18;;;;;;;;;4.00;4.00;;;;;;;;5061907;28;61691;-76
2022/10/09 03:20:43;;;;;;;;;8.75;5.00;;;;;;;;5062295;28;61889;-76
2022/10/09 03:23:08;;;;;;;;;6.75;3.50;;;;;;;;5054177;28;62822;-76
2022/10/09 03:25:33;;;;;;;;;5.50;5.50;;;;;;;;5041103;28;62673;-76
2022/10/09 03:27:59;;;;;;;;;6.50;4.00;;;;;;;;5041920;28;61759;-76
2022/10/09 03:30:24;;;;;;;;;3.75;3.75;;;;;;;;5042476;28;61819;-76
2022/10/09 03:32:49;;;;;;;;;3.00;3.00;;;;;;;;5023037;28;63745;-77
2022/10/09 03:35:14;;;;;;;;;4.25;4.25;;;;;;;;5023873;28;61817;-77
2022/10/09 03:37:40;;;;;;;;;3.00;3.00;;;;;;;;5057637;28;62001;-76
2022/10/09 03:40:05;;;;;;;;;9.75;4.00;;;;;;;;5062180;28;62222;-76
2022/10/09 03:42:30;;;;;;;;;2.75;1.75;;;;;;;;5061650;28;63382;-76
2022/10/09 03:44:59;;;;;;;;;8.00;4.25;;;;;;;;5061832;28;61766;-76
2022/10/09 03:47:24;;;;;;;;;3.25;3.00;;;;;;;;5043938;28;62152;-76
2022/10/09 03:49:50;;;;;;;;;3.00;3.00;;;;;;;;5061257;28;62092;-76
2022/10/09 03:52:15;;;;;;;;;3.75;3.75;;;;;;;;5061236;28;62160;-76
2022/10/09 03:54:40;;;;;;;;;7.50;5.25;;;;;;;;5061922;28;61776;-76
2022/10/09 03:57:05;;;;;;;;;3.75;3.75;;;;;;;;5061682;28;61757;-76
2022/10/09 03:59:31;;;;;;;;;8.50;6.25;;;;;;;;5062237;28;61894;-76
2022/10/09 04:01:56;;;;;;;;;5.50;5.50;;;;;;;;5060979;28;61826;-76
2022/10/09 04:04:21;;;;;;;;;6.75;3.00;;;;;;;;5061294;28;61955;-76
2022/10/09 04:06:46;;;;;;;;;1.00;0.00;;;;;;;;5062041;28;62162;-76
2022/10/09 04:09:12;;;;;;;;;2.25;2.25;;;;;;;;5061739;28;61750;-76
2022/10/09 04:11:37;;;;;;;;;6.50;4.00;;;;;;;;5061097;28;62665;-76
2022/10/09 04:14:02;;;;;;;;;7.00;5.00;;;;;;;;5061563;28;62143;-76
2022/10/09 04:16:28;;;;;;;;;4.25;3.00;;;;;;;;5061648;28;61938;-76
2022/10/09 04:18:53;;;;;;;;;7.25;5.50;;;;;;;;5043338;28;61935;-76
2022/10/09 04:21:18;;;;;;;;;5.25;5.25;;;;;;;;5042696;28;63747;-76
2022/10/09 04:23:43;;;;;;;;;7.25;7.00;;;;;;;;5049259;28;62302;-76
2022/10/09 04:26:10;;;;;;;;;6.75;4.00;;;;;;;;5023338;28;61840;-76
2022/10/09 04:28:35;;;;;;;;;8.25;7.50;;;;;;;;5041627;28;61917;-76
2022/10/09 04:31:00;;;;;;;;;7.50;4.50;;;;;;;;5040335;28;62091;-76
2022/10/09 04:33:26;;;;;;;;;8.75;5.75;;;;;;;;5041339;28;62286;-76
2022/10/09 04:35:52;;;;;;;;;7.50;7.50;;;;;;;;5043586;28;62457;-76
2022/10/09 04:38:18;;;;;;;;;8.00;7.25;;;;;;;;5064683;28;62028;-76
2022/10/09 04:40:43;;;;;;;;;11.50;8.50;;;;;;;;5064315;28;61742;-76
2022/10/09 04:43:09;;;;;;;;;12.50;8.75;;;;;;;;5046450;28;61882;-76
2022/10/09 04:45:37;;;;;;;;;14.00;9.00;;;;;;;;5064446;28;62086;-76
2022/10/09 04:48:03;;;;;;;;;12.00;9.00;;;;;;;;5064499;28;62177;-76
2022/10/09 04:50:28;;;;;;;;;7.00;7.00;;;;;;;;5044811;28;63586;-76
2022/10/09 04:52:53;;;;;;;;;13.25;8.25;;;;;;;;5064617;28;61860;-76
2022/10/09 04:55:18;;;;;;;;;16.50;9.25;;;;;;;;5064607;28;61734;-76
2022/10/09 04:57:44;;;;;;;;;15.00;9.50;;;;;;;;5046561;28;62124;-76
2022/10/09 05:00:10;;;;;;;;;11.00;10.25;;;;;;;;5045506;28;63508;-76
2022/10/09 05:02:35;;;;;;;;;13.25;9.50;;;;;;;;5046582;28;62208;-76
2022/10/09 05:05:00;;;;;;;;;10.25;10.25;;;;;;;;5064218;28;62548;-76
2022/10/09 05:07:25;;;;;;;;;13.50;10.00;;;;;;;;5064904;28;62232;-76
2022/10/09 05:09:51;;;;;;;;;14.75;12.00;;;;;;;;5063409;28;61762;-76
2022/10/09 05:12:16;;;;;;;;;14.00;11.00;;;;;;;;5064386;28;61820;-76
2022/10/09 05:14:41;;;;;;;;;12.75;11.00;;;;;;;;5064168;28;61804;-76
2022/10/09 05:17:07;;;;;;;;;10.25;8.00;;;;;;;;5064846;28;61773;-76
2022/10/09 05:19:32;;;;;;;;;12.25;10.25;;;;;;;;5062733;28;62221;-76
2022/10/09 05:22:00;;;;;;;;;13.75;13.75;;;;;;;;5046162;28;62116;-76
2022/10/09 05:24:26;;;;;;;;;12.25;8.00;;;;;;;;5046183;28;62169;-76
2022/10/09 05:26:51;;;;;;;;;12.25;8.75;;;;;;;;5043937;28;61840;-76
2022/10/09 05:29:17;;;;;;;;;14.50;9.75;;;;;;;;5025019;28;64695;-76
2022/10/09 05:31:42;;;;;;;;;9.00;9.00;;;;;;;;5025960;28;61890;-76
2022/10/09 05:34:08;;;;;;;;;11.00;11.00;;;;;;;;5043804;28;61793;-76
2022/10/09 05:36:33;;;;;;;;;11.25;11.25;;;;;;;;5050280;28;61863;-76
2022/10/09 05:39:00;;;;;;;;;8.50;8.50;;;;;;;;5025998;28;63607;-76
2022/10/09 05:41:25;;;;;;;;;16.75;13.25;;;;;;;;5043579;28;61904;-76
2022/10/09 05:43:50;;;;;;;;;13.25;11.25;;;;;;;;5043380;28;62011;-76
2022/10/09 05:46:20;;;;;;;;;11.00;9.25;;;;;;;;5043398;28;61941;-76
2022/10/09 05:48:51;;;;;;;;;9.75;7.75;;;;;;;;5042357;28;61675;-76
2022/10/09 05:51:18;;;;;;;;;12.50;9.00;;;;;;;;5043132;28;61987;-76
2022/10/09 05:53:44;;;;;;;;;10.25;9.00;;;;;;;;5043441;28;61748;-76
2022/10/09 05:56:22;;;;;;;;;12.00;10.00;;;;;;;;5043951;28;61926;-76
2022/10/09 05:58:52;;;;;;;;;12.00;11.25;;;;;;;;5024299;28;65176;-76
2022/10/09 06:01:18;;;;;;;;;12.00;8.00;;;;;;;;5024971;28;61997;-80
2022/10/09 06:03:46;;;;;;;;;14.25;11.75;;;;;;;;5043416;28;62232;-75
2022/10/09 06:06:11;;;;;;;;;12.50;11.00;;;;;;;;5043473;28;61985;-77
2022/10/09 06:08:37;;;;;;;;;9.50;9.50;;;;;;;;5024783;28;63735;-77
2022/10/09 06:11:09;;;;;;;;;13.75;10.50;;;;;;;;5043072;28;61764;-77
2022/10/09 06:13:34;;;;;;;;;13.25;12.00;;;;;;;;5024843;28;62020;-77
2022/10/09 06:15:59;;;;;;;;;13.75;11.00;;;;;;;;5043564;28;61946;-78
2022/10/09 06:18:26;;;;;;;;;11.00;10.00;;;;;;;;5042523;28;61737;-77
2022/10/09 06:20:55;;;;;;;;;11.25;9.50;;;;;;;;5024916;28;61853;-78
2022/10/09 06:23:21;;;;;;;;;10.75;8.00;;;;;;;;5043429;28;61782;-78
2022/10/09 06:25:50;;;;;;;;;8.75;5.50;;;;;;;;5042978;28;61758;-78
2022/10/09 06:28:15;;;;;;;;;12.50;8.75;;;;;;;;5042058;28;61763;-78
2022/10/09 06:30:40;;;;;;;;;9.00;7.75;;;;;;;;5024998;28;61886;-78
2022/10/09 06:33:06;;;;;;;;;8.00;6.75;;;;;;;;5043201;28;62398;-77
2022/10/09 06:35:33;;;;;;;;;8.75;8.00;;;;;;;;5025024;28;62145;-77
2022/10/09 06:37:58;;;;;;;;;9.00;4.50;;;;;;;;5060102;28;61914;-77
2022/10/09 06:40:23;;;;;;;;;6.50;6.50;;;;;;;;5063233;28;61695;-77
2022/10/09 06:42:48;;;;;;;;;7.50;6.75;;;;;;;;5062967;28;61877;-77
2022/10/09 06:45:14;;;;;;;;;11.50;8.75;;;;;;;;5032118;28;62142;-77
2022/10/09 06:47:39;;;;;;;;;7.50;6.25;;;;;;;;5042086;28;62018;-77
2022/10/09 06:50:05;;;;;;;;;3.00;3.00;;;;;;;;5024059;28;62231;-77
2022/10/09 06:52:30;;;;;;;;;4.75;3.00;;;;;;;;5042698;28;61866;-78
2022/10/09 06:54:55;;;;;;;;;7.50;3.00;;;;;;;;5043008;28;62189;-77
2022/10/09 06:57:21;;;;;;;;;3.50;3.25;;;;;;;;5041750;28;62231;-77
2022/10/09 06:59:48;;;;;;;;;5.25;4.00;;;;;;;;5042264;28;62072;-77
2022/10/09 07:02:15;;;;;;;;;4.00;3.00;;;;;;;;5042747;28;61853;-76
2022/10/09 07:04:41;;;;;;;;;4.25;4.00;;;;;;;;5042295;28;62136;-77
2022/10/09 07:07:10;;;;;;;;;9.25;4.25;;;;;;;;5042178;28;61729;-78
2022/10/09 07:09:35;;;;;;;;;4.00;4.00;;;;;;;;5042227;28;61785;-79
2022/10/09 07:12:00;;;;;;;;;8.75;8.00;;;;;;;;5042182;28;61766;-79
2022/10/09 07:14:27;;;;;;;;;10.00;6.00;;;;;;;;5042568;28;61716;-77
2022/10/09 07:16:53;;;;;;;;;5.50;4.25;;;;;;;;5041668;28;61848;-78
2022/10/09 07:19:18;;;;;;;;;4.00;3.50;;;;;;;;5041962;28;61782;-78
2022/10/09 07:21:44;;;;;;;;;4.75;4.00;;;;;;;;5042332;28;61811;-78
2022/10/09 07:24:11;;;;;;;;;7.75;6.00;;;;;;;;5021331;28;61801;-78
2022/10/09 07:26:38;;;;;;;;;7.00;4.25;;;;;;;;5023003;28;62223;-77
2022/10/09 07:29:04;;;;;;;;;8.00;4.50;;;;;;;;5040877;28;61711;-77
2022/10/09 07:31:30;;;;;;;;;5.00;5.00;;;;;;;;5041795;28;61763;-78
2022/10/09 07:33:56;;;;;;;;;7.75;6.00;;;;;;;;5023054;28;62174;-80
2022/10/09 07:36:21;;;;;;;;;10.50;8.75;;;;;;;;5021906;28;63763;-79
2022/10/09 07:38:51;;;;;;;;;9.25;5.75;;;;;;;;5022610;28;61878;-80
2022/10/09 07:41:16;;;;;;;;;10.50;6.50;;;;;;;;5021660;28;62272;-79
2022/10/09 07:43:42;;;;;;;;;7.00;5.00;;;;;;;;5022422;28;62155;-78
2022/10/09 07:46:11;;;;;;;;;7.00;7.00;;;;;;;;5041223;28;62464;-79
2022/10/09 07:48:37;;;;;;;;;9.00;8.00;;;;;;;;5041879;28;61777;-78
2022/10/09 07:51:06;;;;;;;;;5.00;5.00;;;;;;;;5041275;28;61934;-81
2022/10/09 07:53:31;;;;;;;;;10.75;5.75;;;;;;;;5023884;28;62199;-76
2022/10/09 07:55:56;;;;;;;;;4.00;4.00;;;;;;;;5040952;28;61866;-76
2022/10/09 07:58:22;;;;;;;;;5.00;3.00;;;;;;;;5022643;28;62500;-77
2022/10/09 08:00:47;;;;;;;;;5.00;5.00;;;;;;;;5040260;28;61787;-77
2022/10/09 08:03:12;;;;;;;;;8.50;4.75;;;;;;;;5040098;28;61834;-77
2022/10/09 08:05:38;;;;;;;;;7.75;4.50;;;;;;;;5038999;28;61933;-77
2022/10/09 08:08:03;;;;;;;;;7.00;7.00;;;;;;;;5039738;28;62295;-77
2022/10/09 08:10:29;;;;;;;;;10.25;8.50;;;;;;;;5040346;28;61937;-78
2022/10/09 08:12:54;;;;;;;;;11.75;8.00;;;;;;;;5025194;28;62105;-75
2022/10/09 08:15:19;;;;;;;;;5.50;4.50;;;;;;;;5042871;28;62621;-79
2022/10/09 08:17:44;;;;;;;;;3.75;3.75;;;;;;;;5044228;28;61981;-78
2022/10/09 08:20:10;;;;;;;;;5.25;3.25;;;;;;;;5043127;28;61911;-79
2022/10/09 08:22:35;;;;;;;;;8.50;5.00;;;;;;;;5028911;28;62142;-79
2022/10/09 08:25:00;;;;;;;;;13.00;6.00;;;;;;;;5032047;28;63957;-78
2022/10/09 08:27:25;;;;;;;;;5.00;5.00;;;;;;;;5031078;28;62341;-80
2022/10/09 08:29:51;;;;;;;;;10.25;6.00;;;;;;;;5044472;28;62241;-79
2022/10/09 08:32:16;;;;;;;;;9.25;7.75;;;;;;;;5044948;28;61920;-78
2022/10/09 08:34:42;;;;;;;;;6.75;5.75;;;;;;;;5025594;28;63759;-79
2022/10/09 08:37:07;;;;;;;;;10.25;7.00;;;;;;;;5033311;28;62110;-78
2022/10/09 08:39:32;;;;;;;;;8.50;5.00;;;;;;;;5049518;28;62004;-76
2022/10/09 08:42:00;;;;;;;;;8.25;7.75;;;;;;;;5051914;28;61976;-74
2022/10/09 08:44:37;;;;;;;;;9.25;7.00;;;;;;;;5025461;28;63825;-75
2022/10/09 08:47:08;;;;;;;;;6.50;6.50;;;;;;;;5044248;28;62213;-75
2022/10/09 08:49:37;;;;;;;;;8.00;5.75;;;;;;;;5041799;28;61832;-74
2022/10/09 08:52:13;;;;;;;;;6.50;4.75;;;;;;;;5025911;28;62173;-76
2022/10/09 08:54:38;;;;;;;;;7.75;6.25;;;;;;;;5025512;28;64152;-75
2022/10/09 08:57:08;;;;;;;;;7.75;7.25;;;;;;;;5043726;28;61968;-74
2022/10/09 08:59:34;;;;;;;;;7.75;7.75;;;;;;;;5044484;28;62148;-74
2022/10/09 09:02:12;;;;;;;;;11.00;7.75;;;;;;;;5044012;28;61957;-74
2022/10/09 09:04:56;;;;;;;;;6.50;5.00;;;;;;;;5043038;28;62347;-75
2022/10/09 09:07:43;;;;;;;;;6.50;6.50;;;;;;;;5044256;28;61851;-75
2022/10/09 09:10:29;;;;;;;;;12.25;8.25;;;;;;;;5043116;28;61868;-74
2022/10/09 09:12:59;;;;;;;;;14.00;9.75;;;;;;;;5033192;28;61758;-75
2022/10/09 09:15:34;;;;;;;;;13.00;8.00;;;;;;;;5043374;28;61770;-74
2022/10/09 09:18:19;;;;;;;;;10.25;9.75;;;;;;;;5043931;28;61814;-75
2022/10/09 09:20:52;;;;;;;;;9.75;8.00;;;;;;;;4981040;28;61921;-75
2022/10/09 09:23:19;;;;;;;;;10.00;8.00;;;;;;;;4980525;28;62198;-74
2022/10/09 09:25:45;;;;;;;;;7.50;7.00;;;;;;;;4964530;28;63657;-75
2022/10/09 09:28:16;;;;;;;;;9.75;9.75;;;;;;;;4981777;28;61791;-75
2022/10/09 09:30:44;;;;;;;;;12.25;11.25;;;;;;;;4981520;28;62031;-75
2022/10/09 09:33:21;;;;;;;;;14.00;8.50;;;;;;;;4963538;28;62028;-74
2022/10/09 09:36:05;;;;;;;;;10.50;10.50;;;;;;;;4962417;28;63788;-74
2022/10/09 09:38:30;;;;;;;;;11.00;7.00;;;;;;;;4980878;28;62265;-74
2022/10/09 09:40:55;;;;;;;;;8.00;7.00;;;;;;;;4980751;28;62004;-74
2022/10/09 09:43:22;;;;;;;;;10.50;8.00;;;;;;;;4980300;28;61889;-74
2022/10/09 09:45:49;;;;;;;;;8.25;7.00;;;;;;;;4963185;28;64990;-74
2022/10/09 09:48:16;;;;;;;;;12.75;9.25;;;;;;;;4979223;28;62142;-75
2022/10/09 09:50:43;;;;;;;;;9.25;8.00;;;;;;;;4979379;28;62266;-75
2022/10/09 09:53:14;;;;;;;;;12.75;8.50;;;;;;;;4978849;28;62078;-75
2022/10/09 09:55:39;;;;;;;;;12.75;9.75;;;;;;;;4977488;28;62745;-75
2022/10/09 09:58:06;;;;;;;;;10.25;7.00;;;;;;;;4998744;28;61988;-75
2022/10/09 10:00:32;;;;;;;;;8.25;7.00;;;;;;;;5042355;28;61774;-74
2022/10/09 10:03:10;;;;;;;;;7.75;7.75;;;;;;;;5023915;28;62172;-75
2022/10/09 10:05:36;;;;;;;;;11.00;5.00;;;;;;;;5038808;28;61821;-74
2022/10/09 10:08:11;;;;;;;;;13.00;5.75;;;;;;;;5023712;28;61878;-75
2022/10/09 10:10:37;;;;;;;;;8.25;6.75;;;;;;;;5040136;28;61908;-76
2022/10/09 10:13:02;;;;;;;;;6.00;6.00;;;;;;;;5023663;28;62208;-76
2022/10/09 10:15:27;;;;;;;;;8.00;7.00;;;;;;;;5040643;28;61967;-76
2022/10/09 10:18:16;;;;;;;;;7.50;7.50;;;;;;;;5023658;28;61753;-76
2022/10/09 10:21:01;;;;;;;;;9.75;7.75;;;;;;;;5030639;28;62110;-76
2022/10/09 10:23:39;;;;;;;;;5.25;4.00;;;;;;;;5041382;28;61845;-76
2022/10/09 10:26:11;;;;;;;;;5.00;4.00;;;;;;;;5039715;28;61928;-75
2022/10/09 10:28:44;;;;;;;;;4.25;4.25;;;;;;;;5039680;28;62266;-76
2022/10/09 10:31:15;;;;;;;;;3.75;3.75;;;;;;;;5039946;28;62007;-76
2022/10/09 10:33:42;;;;;;;;;5.25;5.25;;;;;;;;5041344;28;61921;-76
2022/10/09 10:36:08;;;;;;;;;5.75;3.75;;;;;;;;5042047;28;62047;-76
2022/10/09 10:38:57;;;;;;;;;7.00;4.00;;;;;;;;5023765;28;61890;-75
2022/10/09 10:41:29;;;;;;;;;3.25;3.00;;;;;;;;5040008;28;61830;-76
2022/10/09 10:44:02;;;;;;;;;8.25;4.50;;;;;;;;5041561;28;61880;-76
2022/10/09 10:46:33;;;;;;;;;4.00;4.00;;;;;;;;5023314;28;63720;-76
2022/10/09 10:48:59;;;;;;;;;4.00;3.00;;;;;;;;5020036;28;61981;-77
2022/10/09 10:51:40;;;;;;;;;5.00;3.25;;;;;;;;5041236;28;61981;-79
2022/10/09 10:54:05;;;;;;;;;3.75;2.75;;;;;;;;5042163;28;61896;-78
2022/10/09 10:56:49;;;;;;;;;1.00;1.00;;;;;;;;5040730;28;62494;-77
2022/10/09 10:59:25;;;;;;;;;4.25;4.00;;;;;;;;5051679;28;61878;-77
2022/10/09 11:01:51;;;;;;;;;5.25;4.00;;;;;;;;5053169;28;62820;-77
2022/10/09 11:04:27;;;;;;;;;3.25;3.00;;;;;;;;5038581;28;61965;-77
2022/10/09 11:07:02;;;;;;;;;3.50;1.75;;;;;;;;5029874;28;63717;-78
2022/10/09 11:09:39;;;;;;;;;2.50;2.50;;;;;;;;5026443;28;61940;-77
2022/10/09 11:12:12;;;;;;;;;5.25;3.00;;;;;;;;5042380;28;61767;-78
2022/10/09 11:14:37;;;;;;;;;3.25;3.25;;;;;;;;5023949;28;62053;-78
2022/10/09 11:17:06;;;;;;;;;2.75;2.75;;;;;;;;5041618;28;61828;-78
2022/10/09 11:19:50;;;;;;;;;7.50;3.25;;;;;;;;5023724;28;61891;-78
2022/10/09 11:22:15;;;;;;;;;2.00;2.00;;;;;;;;5041366;28;61920;-79
2022/10/09 11:24:40;;;;;;;;;4.00;3.75;;;;;;;;5042214;28;62220;-76
2022/10/09 11:27:08;;;;;;;;;2.25;1.25;;;;;;;;5041473;28;62689;-76
2022/10/09 11:30:00;;;;;;;;;4.00;2.00;;;;;;;;5023731;28;61956;-76
2022/10/09 11:32:31;;;;;;;;;3.00;1.50;;;;;;;;5021069;28;62136;-76
2022/10/09 11:35:11;;;;;;;;;8.50;3.50;;;;;;;;5040476;28;62116;-75
2022/10/09 11:37:39;;;;;;;;;9.50;8.00;;;;;;;;5046979;28;62692;-77
2022/10/09 11:40:12;;;;;;;;;34.25;23.50;;;;;;;;5041929;28;61782;-77
2022/10/09 11:42:37;;;;;;;;;5.00;3.75;;;;;;;;5032361;28;61750;-75
2022/10/09 11:45:21;;;;;;;;;2.00;2.00;;;;;;;;5050457;28;61628;-77
2022/10/09 11:48:07;;;;;;;;;5.75;3.50;;;;;;;;5035680;28;63956;-78
2022/10/09 11:50:33;;;;;;;;;3.00;3.00;;;;;;;;5034059;28;61877;-76
2022/10/09 11:53:05;;;;;;;;;2.00;2.00;;;;;;;;5053778;28;61786;-76
2022/10/09 11:55:31;;;;;;;;;2.00;2.00;;;;;;;;5054963;28;62142;-76
2022/10/09 11:58:16;;;;;;;;;2.00;2.00;;;;;;;;5058603;28;61865;-76
2022/10/09 12:00:42;;;;;;;;;3.25;2.00;;;;;;;;5046927;28;61813;-76
2022/10/09 12:03:22;;;;;;;;;1.00;1.00;;;;;;;;5065316;28;61785;-76
2022/10/09 12:05:48;;;;;;;;;2.00;2.00;;;;;;;;5064812;28;62155;-76
2022/10/09 12:08:17;;;;;;;;;2.25;1.00;;;;;;;;5046678;28;65442;-76
2022/10/09 12:10:51;;;;;;;;;3.50;1.75;;;;;;;;5054278;28;61724;-76
2022/10/09 12:13:28;;;;;;;;;2.00;1.00;;;;;;;;5051061;28;61899;-77
2022/10/09 12:15:55;;;;;;;;;4.50;2.00;;;;;;;;5045701;28;62077;-76
2022/10/09 12:18:29;;;;;;;;;4.00;2.00;;;;;;;;5036678;28;63806;-77
2022/10/09 12:20:55;;;;;;;;;2.75;2.75;;;;;;;;5049220;28;61985;-76
2022/10/09 12:23:22;;;;;;;;;2.00;2.00;;;;;;;;5055278;28;61833;-76
2022/10/09 12:25:48;;;;;;;;;3.00;1.75;;;;;;;;5030153;28;61719;-76
2022/10/09 12:28:34;;;;;;;;;3.00;1.50;;;;;;;;5043564;28;63166;-76
2022/10/09 12:31:02;;;;;;;;;5.00;2.00;;;;;;;;5043482;28;61938;-76
2022/10/09 12:33:27;;;;;;;;;2.00;2.00;;;;;;;;5043320;28;61747;-76
2022/10/09 12:36:01;;;;;;;;;2.00;2.00;;;;;;;;5043828;28;61791;-76
2022/10/09 12:38:28;;;;;;;;;4.00;2.25;;;;;;;;5040877;28;61996;-80
2022/10/09 12:40:55;;;;;;;;;0.33;0.33;;;;;;;;5025308;28;61983;-77
2022/10/09 12:43:21;;;;;;;;;2.00;0.67;;;;;;;;5026256;28;62798;-77
2022/10/09 12:45:48;;;;;;;;;2.50;2.00;;;;;;;;5044568;28;62018;-79
2022/10/09 12:48:17;;;;;;;;;1.33;1.00;;;;;;;;5043690;28;61742;-79
2022/10/09 12:50:42;;;;;;;;;0.00;0.00;;;;;;;;5043707;28;61743;-79
2022/10/09 12:53:12;;;;;;;;;2.67;1.00;;;;;;;;5044559;28;62000;-78
2022/10/09 12:55:43;;;;;;;;;2.33;1.33;;;;;;;;5043324;28;62004;-79
2022/10/09 12:58:14;;;;;;;;;2.33;1.33;;;;;;;;5040237;28;63086;-79
2022/10/09 13:00:40;;;;;;;;;2.33;2.33;;;;;;;;5043860;28;61807;-79
2022/10/09 13:03:05;;;;;;;;;2.00;1.00;;;;;;;;5025809;28;62040;-80
2022/10/09 13:05:35;;;;;;;;;2.33;1.67;;;;;;;;5047498;28;62118;-80
2022/10/09 13:08:00;;;;;;;;;0.67;0.67;;;;;;;;5035227;28;65148;-81
2022/10/09 13:10:25;;;;;;;;;2.00;2.00;;;;;;;;5054777;28;62049;-81
2022/10/09 13:12:53;;;;;;;;;4.33;3.00;;;;;;;;5051372;28;61852;-81
2022/10/09 13:15:35;;;;;;;;;2.00;2.00;;;;;;;;5047525;28;61944;-81
2022/10/09 13:18:11;;;;;;;;;3.00;1.00;;;;;;;;5025633;28;63621;-81
2022/10/09 13:20:36;;;;;;;;;4.00;2.00;;;;;;;;5031374;28;62889;-88
2022/10/09 13:23:03;;;;;;;;;1.00;1.00;;;;;;;;5054276;28;61666;-86
2022/10/09 13:25:33;;;;;;;;;2.00;2.00;;;;;;;;5024903;28;62113;-87
2022/10/09 13:27:59;;;;;;;;;2.00;2.00;;;;;;;;5023766;28;64027;-87
2022/10/09 13:30:25;;;;;;;;;1.00;1.00;;;;;;;;5025232;28;61867;-86
2022/10/09 13:32:51;;;;;;;;;4.00;2.33;;;;;;;;5044026;28;61848;-85
2022/10/09 13:35:16;;;;;;;;;1.33;1.33;;;;;;;;5028773;28;61903;-83
2022/10/09 13:37:41;;;;;;;;;0.67;0.67;;;;;;;;5044239;28;62926;-88
2022/10/09 13:40:10;;;;;;;;;1.00;1.00;;;;;;;;5049432;28;62390;-83
2022/10/09 13:42:36;;;;;;;;;1.67;1.67;;;;;;;;5049859;28;62045;-86
2022/10/09 13:45:02;;;;;;;;;2.00;2.00;;;;;;;;5041513;28;62017;-86
2022/10/09 13:47:27;;;;;;;;;2.33;2.33;;;;;;;;5046754;28;63008;-85
2022/10/09 13:49:52;;;;;;;;;2.33;2.33;;;;;;;;5023350;28;62156;-86
2022/10/09 13:52:18;;;;;;;;;4.67;3.33;;;;;;;;5006320;28;61932;-86
2022/10/09 13:54:43;;;;;;;;;2.00;2.00;;;;;;;;5003432;28;62487;-84
2022/10/09 13:57:08;;;;;;;;;2.00;2.00;;;;;;;;4996834;28;64801;-86
2022/10/09 13:59:33;;;;;;;;;2.00;2.00;;;;;;;;5007710;28;61821;-85
2022/10/09 14:01:59;;;;;;;;;3.00;2.00;;;;;;;;5009439;28;61916;-86
2022/10/09 14:04:26;;;;;;;;;2.00;1.00;;;;;;;;5011107;28;61982;-84
2022/10/09 14:06:52;;;;;;;;;3.33;1.33;;;;;;;;5010831;28;63904;-85
2022/10/09 14:09:17;;;;;;;;;2.33;0.67;;;;;;;;5007808;28;61875;-88
2022/10/09 14:11:42;;;;;;;;;0.67;0.67;;;;;;;;5009154;28;61889;-85
2022/10/09 14:14:08;;;;;;;;;0.67;0.67;;;;;;;;5003554;28;62098;-81
2022/10/09 14:16:33;;;;;;;;;2.00;1.67;;;;;;;;5011986;28;62594;-82
2022/10/09 14:19:00;;;;;;;;;1.00;0.67;;;;;;;;5001837;28;61926;-85
2022/10/09 14:21:26;;;;;;;;;0.67;0.67;;;;;;;;5002529;28;62109;-82
2022/10/09 14:23:56;;;;;;;;;0.00;0.00;;;;;;;;5002668;28;62122;-78
2022/10/09 14:26:22;;;;;;;;;4.67;2.00;;;;;;;;5001752;28;61898;-76
2022/10/09 14:28:47;;;;;;;;;1.33;0.67;;;;;;;;5003091;28;61951;-75
2022/10/09 14:31:12;;;;;;;;;3.00;1.00;;;;;;;;5002655;28;62423;-75
2022/10/09 14:33:38;;;;;;;;;2.00;1.00;;;;;;;;5007510;28;61871;-75
2022/10/09 14:36:14;;;;;;;;;2.00;1.67;;;;;;;;5019491;28;61721;-76
2022/10/09 14:38:40;;;;;;;;;1.67;1.00;;;;;;;;5001604;28;61845;-76
2022/10/09 14:41:06;;;;;;;;;2.00;1.00;;;;;;;;5002127;28;61949;-77
2022/10/09 14:43:32;;;;;;;;;4.67;2.00;;;;;;;;5003091;28;61809;-78